createdAt,value
2022-12-18T00:02:07.332Z,45.53
2022-12-18T00:04:33.974Z,45.28
2022-12-18T00:07:00.496Z,44.50
2022-12-18T00:09:31.382Z,44.55
2022-12-18T00:14:43.306Z,48.40
2022-12-18T00:17:09.984Z,47.65
2022-12-18T00:19:36.559Z,46.35
2022-12-18T00:22:03.043Z,46.08
2022-12-18T00:24:29.532Z,44.67
2022-12-18T00:26:56.308Z,44.75
2022-12-18T00:29:22.930Z,47.85
2022-12-18T00:31:49.452Z,45.17
2022-12-18T00:34:16.102Z,44.38
2022-12-18T00:36:42.806Z,43.53
2022-12-18T00:39:10.864Z,45.50
2022-12-18T00:41:55.761Z,45.70
2022-12-18T00:44:22.308Z,41.67
2022-12-18T00:46:49.259Z,45.80
2022-12-18T00:49:19.888Z,41.88
2022-12-18T00:51:47.040Z,42.70
2022-12-18T00:54:13.607Z,41.90
2022-12-18T00:56:48.200Z,44.20
2022-12-18T00:59:15.550Z,46.15
2022-12-18T01:01:42.256Z,40.13
2022-12-18T01:04:09.101Z,42.05
2022-12-18T01:06:35.665Z,44.13
2022-12-18T01:09:02.357Z,43.33
2022-12-18T01:11:28.928Z,44.35
2022-12-18T01:13:56.273Z,45.45
2022-12-18T01:16:23.570Z,44.90
2022-12-18T01:18:53.783Z,47.53
2022-12-18T01:21:20.751Z,43.92
2022-12-18T01:23:47.445Z,41.78
2022-12-18T01:26:17.414Z,43.95
2022-12-18T01:28:44.867Z,45.17
2022-12-18T01:31:12.362Z,43.20
2022-12-18T01:33:39.263Z,42.28
2022-12-18T01:36:06.316Z,40.42
2022-12-18T01:38:32.889Z,42.13
2022-12-18T01:41:00.662Z,41.08
2022-12-18T01:44:25.616Z,38.50
2022-12-18T01:46:52.100Z,36.72
2022-12-18T01:49:18.587Z,38.58
2022-12-18T01:51:45.083Z,40.03
2022-12-18T01:54:11.633Z,39.67
2022-12-18T01:56:38.224Z,39.85
2022-12-18T01:59:07.173Z,44.70
2022-12-18T02:01:34.192Z,42.85
2022-12-18T02:04:36.331Z,48.10
2022-12-18T02:07:20.597Z,42.08
2022-12-18T02:10:01.405Z,40.00
2022-12-18T02:12:54.318Z,42.35
2022-12-18T02:15:29.707Z,41.30
2022-12-18T02:18:00.021Z,43.08
2022-12-18T02:20:34.566Z,41.85
2022-12-18T02:23:25.536Z,36.72
2022-12-18T02:26:26.807Z,41.50
2022-12-18T02:29:34.086Z,41.60
2022-12-18T02:32:01.079Z,40.60
2022-12-18T02:34:30.357Z,39.20
2022-12-18T02:36:57.643Z,41.45
2022-12-18T02:39:26.507Z,41.95
2022-12-18T02:41:53.585Z,45.92
2022-12-18T02:44:20.096Z,43.72
2022-12-18T02:46:50.327Z,48.60
2022-12-18T02:49:28.751Z,44.80
2022-12-18T02:52:01.890Z,43.03
2022-12-18T02:54:47.213Z,44.88
2022-12-18T02:57:40.813Z,46.47
2022-12-18T03:00:13.348Z,42.83
2022-12-18T03:02:54.982Z,42.15
2022-12-18T03:05:24.140Z,42.95
2022-12-18T03:07:58.144Z,44.70
2022-12-18T03:10:31.165Z,40.58
2022-12-18T03:13:04.630Z,41.72
2022-12-18T03:15:43.965Z,42.47
2022-12-18T03:18:34.810Z,37.92
2022-12-18T03:21:05.747Z,38.03
2022-12-18T03:23:36.667Z,37.47
2022-12-18T03:26:08.355Z,36.03
2022-12-18T03:28:39.698Z,35.78
2022-12-18T03:31:08.503Z,36.92
2022-12-18T03:33:53.263Z,36.22
2022-12-18T03:36:19.866Z,35.30
2022-12-18T03:38:46.472Z,35.72
2022-12-18T03:41:15.876Z,35.15
2022-12-18T03:44:04.337Z,37.15
2022-12-18T03:46:48.504Z,36.05
2022-12-18T03:49:27.634Z,31.02
2022-12-18T03:52:07.572Z,34.17
2022-12-18T03:54:35.120Z,35.83
2022-12-18T03:57:12.861Z,35.92
2022-12-18T03:59:40.296Z,32.42
2022-12-18T04:02:08.581Z,34.33
2022-12-18T04:04:36.967Z,33.42
2022-12-18T04:07:03.717Z,33.60
2022-12-18T04:09:31.433Z,30.77
2022-12-18T04:11:57.936Z,30.73
2022-12-18T04:14:24.440Z,33.58
2022-12-18T04:16:50.932Z,33.05
2022-12-18T04:19:17.547Z,30.23
2022-12-18T04:21:44.062Z,32.22
2022-12-18T04:24:10.660Z,32.20
2022-12-18T04:26:37.196Z,30.90
2022-12-18T04:29:03.902Z,30.55
2022-12-18T04:31:30.513Z,29.08
2022-12-18T04:33:57.079Z,28.20
2022-12-18T04:36:23.631Z,30.20
2022-12-18T04:38:50.280Z,28.50
2022-12-18T04:41:16.822Z,30.20
2022-12-18T04:43:43.425Z,29.67
2022-12-18T04:46:10.341Z,29.27
2022-12-18T04:48:37.670Z,29.13
2022-12-18T04:51:05.157Z,26.65
2022-12-18T04:53:31.764Z,29.27
2022-12-18T04:56:12.288Z,27.65
2022-12-18T04:58:40.441Z,25.10
2022-12-18T05:01:08.474Z,26.02
2022-12-18T05:03:35.788Z,25.27
2022-12-18T05:06:02.321Z,25.45
2022-12-18T05:08:29.006Z,25.55
2022-12-18T05:11:07.005Z,24.92
2022-12-18T05:13:34.062Z,24.23
2022-12-18T05:16:00.742Z,26.08
2022-12-18T05:18:27.644Z,23.13
2022-12-18T05:20:55.066Z,24.67
2022-12-18T05:23:22.892Z,24.30
2022-12-18T05:25:56.663Z,22.33
2022-12-18T05:28:23.776Z,23.45
2022-12-18T05:30:51.724Z,23.50
2022-12-18T05:33:23.165Z,22.58
2022-12-18T05:35:53.664Z,24.05
2022-12-18T05:38:21.213Z,23.77
2022-12-18T05:40:49.238Z,24.40
2022-12-18T05:43:20.943Z,23.75
2022-12-18T05:45:48.287Z,23.75
2022-12-18T05:48:15.552Z,24.20
2022-12-18T05:50:46.407Z,23.00
2022-12-18T05:53:14.294Z,21.35
2022-12-18T05:55:42.628Z,21.13
2022-12-18T05:58:10.388Z,22.27
2022-12-18T06:00:42.861Z,19.70
2022-12-18T06:03:10.424Z,22.85
2022-12-18T06:05:38.416Z,20.00
2022-12-18T06:08:05.418Z,20.67
2022-12-18T06:10:32.600Z,20.77
2022-12-18T06:12:59.492Z,20.48
2022-12-18T06:15:26.066Z,19.67
2022-12-18T06:17:52.729Z,19.83
2022-12-18T06:20:19.780Z,20.52
2022-12-18T06:22:46.478Z,20.65
2022-12-18T06:25:13.019Z,21.27
2022-12-18T06:27:39.594Z,20.77
2022-12-18T06:30:07.266Z,20.23
2022-12-18T06:32:33.969Z,20.75
2022-12-18T06:35:00.650Z,20.50
2022-12-18T06:37:27.434Z,21.75
2022-12-18T06:39:54.609Z,22.20
2022-12-18T06:42:24.278Z,21.83
2022-12-18T06:44:51.048Z,19.40
2022-12-18T06:47:17.565Z,20.90
2022-12-18T06:49:44.297Z,22.35
2022-12-18T06:52:11.002Z,24.35
2022-12-18T06:54:37.613Z,25.73
2022-12-18T06:57:04.218Z,25.42
2022-12-18T06:59:30.755Z,24.02
2022-12-18T07:01:57.349Z,22.70
2022-12-18T07:04:29.210Z,21.92
2022-12-18T07:06:55.673Z,19.98
2022-12-18T07:09:22.154Z,17.90
2022-12-18T07:11:48.660Z,20.40
2022-12-18T07:14:15.154Z,19.80
2022-12-18T07:16:41.883Z,22.33
2022-12-18T07:19:08.712Z,24.45
2022-12-18T07:21:35.196Z,26.77
2022-12-18T07:24:01.713Z,24.67
2022-12-18T07:26:28.315Z,20.95
2022-12-18T07:29:00.805Z,19.63
2022-12-18T07:31:28.067Z,18.90
2022-12-18T07:33:54.909Z,19.08
2022-12-18T07:36:21.399Z,19.95
2022-12-18T07:38:49.243Z,18.30
2022-12-18T07:41:15.778Z,18.25
2022-12-18T07:43:43.465Z,16.80
2022-12-18T07:46:11.756Z,17.80
2022-12-18T07:48:41.606Z,17.48
2022-12-18T07:51:08.632Z,18.83
2022-12-18T07:53:36.768Z,17.88
2022-12-18T07:58:56.470Z,17.13
2022-12-18T08:01:23.122Z,16.52
2022-12-18T08:03:52.207Z,17.13
2022-12-18T08:06:19.070Z,16.70
2022-12-18T08:08:45.670Z,17.30
2022-12-18T08:11:12.178Z,16.25
2022-12-18T08:13:39.122Z,17.60
2022-12-18T08:16:07.923Z,16.50
2022-12-18T08:18:35.773Z,16.38
2022-12-18T08:21:13.122Z,17.35
2022-12-18T08:23:42.987Z,15.95
2022-12-18T08:26:11.209Z,15.68
2022-12-18T08:28:37.800Z,16.13
2022-12-18T08:31:04.953Z,16.95
2022-12-18T08:33:31.921Z,15.90
2022-12-18T08:36:00.039Z,17.63
2022-12-18T08:38:26.593Z,15.43
2022-12-18T08:41:06.956Z,16.40
2022-12-18T08:43:52.044Z,16.13
2022-12-18T08:46:19.790Z,14.90
2022-12-18T08:48:46.575Z,15.10
2022-12-18T08:51:13.533Z,14.77
2022-12-18T08:53:40.673Z,17.25
2022-12-18T08:56:08.223Z,16.02
2022-12-18T08:58:34.788Z,14.25
2022-12-18T09:01:03.146Z,16.52
2022-12-18T09:03:29.794Z,17.38
2022-12-18T09:05:56.519Z,15.65
2022-12-18T09:08:22.993Z,15.20
2022-12-18T09:10:50.527Z,14.57
2022-12-18T09:13:17.969Z,15.55
2022-12-18T09:15:46.489Z,13.82
2022-12-18T09:18:13.894Z,16.40
2022-12-18T09:20:40.490Z,15.35
2022-12-18T09:23:07.400Z,15.40
2022-12-18T09:25:36.913Z,15.48
2022-12-18T09:28:15.577Z,14.32
2022-12-18T09:30:44.384Z,14.95
2022-12-18T09:33:11.014Z,15.10
2022-12-18T09:35:42.260Z,13.93
2022-12-18T09:38:11.258Z,14.63
2022-12-18T09:40:45.250Z,13.45
2022-12-18T09:43:21.382Z,14.17
2022-12-18T09:45:56.383Z,14.38
2022-12-18T09:48:48.415Z,13.88
2022-12-18T09:51:42.897Z,13.88
2022-12-18T09:54:17.370Z,13.13
2022-12-18T09:56:44.735Z,13.93
2022-12-18T09:59:31.186Z,12.63
2022-12-18T10:01:58.257Z,12.77
2022-12-18T10:04:25.542Z,13.52
2022-12-18T10:07:24.392Z,14.00
2022-12-18T10:10:04.387Z,11.77
2022-12-18T10:12:39.969Z,13.02
2022-12-18T10:15:12.300Z,12.07
2022-12-18T10:18:03.844Z,12.65
2022-12-18T10:20:40.134Z,12.60
2022-12-18T10:23:15.553Z,14.02
2022-12-18T10:26:05.943Z,13.38
2022-12-18T10:28:34.948Z,13.68
2022-12-18T10:31:01.796Z,12.98
2022-12-18T10:33:32.901Z,12.77
2022-12-18T10:36:01.056Z,13.02
2022-12-18T10:38:32.794Z,12.68
2022-12-18T10:41:05.445Z,13.05
2022-12-18T10:43:37.630Z,12.80
2022-12-18T10:46:10.295Z,13.15
2022-12-18T10:48:57.449Z,12.35
2022-12-18T10:51:25.293Z,13.73
2022-12-18T10:54:15.639Z,13.10
2022-12-18T10:56:42.293Z,12.35
2022-12-18T10:59:13.132Z,11.60
2022-12-18T11:01:56.164Z,13.27
2022-12-18T11:04:30.693Z,11.02
2022-12-18T11:07:02.651Z,11.48
2022-12-18T11:09:33.232Z,12.55
2022-12-18T11:12:02.694Z,12.68
2022-12-18T11:14:32.815Z,12.32
2022-12-18T11:19:53.983Z,12.07
2022-12-18T11:22:24.088Z,13.27
2022-12-18T11:25:30.856Z,11.93
2022-12-18T11:30:31.585Z,10.93
2022-12-18T11:32:58.210Z,12.20
2022-12-18T11:35:50.628Z,13.20
2022-12-18T11:38:26.456Z,12.65
2022-12-18T11:41:00.438Z,11.68
2022-12-18T11:43:35.827Z,12.40
2022-12-18T11:46:13.478Z,11.65
2022-12-18T11:48:55.701Z,12.60
2022-12-18T11:51:34.578Z,13.50
2022-12-18T11:54:02.687Z,12.93
2022-12-18T11:56:45.849Z,14.52
2022-12-18T11:59:28.962Z,13.60
2022-12-18T12:01:59.599Z,14.48
2022-12-18T12:04:45.154Z,12.65
2022-12-18T12:07:23.122Z,13.50
2022-12-18T12:09:52.578Z,12.77
2022-12-18T12:12:56.642Z,14.85
2022-12-18T12:15:29.297Z,14.73
2022-12-18T12:18:05.726Z,15.10
2022-12-18T12:20:37.567Z,13.85
2022-12-18T12:23:33.337Z,14.68
2022-12-18T12:28:50.512Z,13.68
2022-12-18T12:31:54.227Z,13.57
2022-12-18T12:34:24.590Z,14.48
2022-12-18T12:37:03.054Z,14.02
2022-12-18T12:39:33.822Z,13.13
2022-12-18T12:42:18.908Z,13.23
2022-12-18T12:44:54.202Z,13.82
2022-12-18T12:47:37.178Z,13.77
2022-12-18T12:50:07.964Z,14.32
2022-12-18T12:52:38.924Z,15.10
2022-12-18T12:55:14.490Z,14.48
2022-12-18T12:57:48.886Z,14.00
2022-12-18T13:00:20.428Z,13.90
2022-12-18T13:02:59.430Z,12.38
2022-12-18T13:05:47.709Z,14.27
2022-12-18T13:08:27.996Z,14.85
2022-12-18T13:11:19.879Z,13.23
2022-12-18T13:13:54.204Z,13.95
2022-12-18T13:16:23.730Z,14.95
2022-12-18T13:18:55.564Z,13.68
2022-12-18T13:21:33.904Z,13.75
2022-12-18T13:24:26.372Z,13.82
2022-12-18T13:26:53.119Z,14.82
2022-12-18T13:29:43.030Z,14.32
2022-12-18T13:32:26.557Z,14.00
2022-12-18T13:35:19.019Z,13.63
2022-12-18T13:37:54.096Z,13.00
2022-12-18T13:40:39.594Z,14.05
2022-12-18T13:43:45.034Z,14.00
2022-12-18T13:46:31.770Z,13.30
2022-12-18T13:49:03.695Z,14.38
2022-12-18T13:51:32.017Z,13.32
2022-12-18T13:54:04.142Z,15.30
2022-12-18T13:56:35.173Z,13.73
2022-12-18T13:59:25.158Z,14.75
2022-12-18T14:01:57.863Z,14.02
2022-12-18T14:04:35.792Z,14.63
2022-12-18T14:07:26.292Z,14.50
2022-12-18T14:10:18.787Z,15.50
2022-12-18T14:12:57.409Z,13.60
2022-12-18T14:15:27.961Z,17.45
2022-12-18T14:17:58.415Z,13.65
2022-12-18T14:20:33.020Z,14.57
2022-12-18T14:23:00.877Z,14.63
2022-12-18T14:25:30.459Z,15.13
2022-12-18T14:28:13.550Z,15.48
2022-12-18T14:30:43.800Z,15.73
2022-12-18T14:33:16.205Z,15.23
2022-12-18T14:35:53.036Z,15.95
2022-12-18T14:38:30.341Z,15.48
2022-12-18T14:41:10.307Z,15.48
2022-12-18T14:43:39.113Z,14.30
2022-12-18T14:46:07.512Z,15.45
2022-12-18T14:48:37.039Z,15.20
2022-12-18T14:51:18.799Z,15.98
2022-12-18T14:53:52.381Z,16.52
2022-12-18T14:56:32.286Z,15.60
2022-12-18T14:59:04.781Z,16.40
2022-12-18T15:01:38.080Z,15.77
2022-12-18T15:04:06.586Z,15.50
2022-12-18T15:06:38.129Z,14.68
2022-12-18T15:09:21.003Z,16.35
2022-12-18T15:11:47.586Z,16.45
2022-12-18T15:14:36.103Z,15.65
2022-12-18T15:17:06.247Z,14.23
2022-12-18T15:19:41.148Z,16.40
2022-12-18T15:22:22.993Z,15.07
2022-12-18T15:24:49.869Z,14.90
2022-12-18T15:27:34.367Z,13.90
2022-12-18T15:30:13.546Z,15.03
2022-12-18T15:32:43.100Z,14.77
2022-12-18T15:35:09.734Z,14.77
2022-12-18T15:37:36.527Z,15.90
2022-12-18T15:40:03.352Z,16.08
2022-12-18T15:42:49.362Z,16.08
2022-12-18T15:45:16.621Z,15.68
2022-12-18T15:47:45.298Z,18.05
2022-12-18T15:50:11.817Z,17.67
2022-12-18T15:52:46.414Z,15.95
2022-12-18T15:55:39.145Z,17.83
2022-12-18T15:58:08.121Z,16.83
2022-12-18T16:00:36.644Z,15.18
2022-12-18T16:03:04.659Z,16.60
2022-12-18T16:05:31.968Z,17.85
2022-12-18T16:07:59.182Z,17.35
2022-12-18T16:10:26.454Z,16.38
2022-12-18T16:12:53.105Z,15.88
2022-12-18T16:15:24.584Z,15.82
2022-12-18T16:17:52.599Z,17.88
2022-12-18T16:20:21.720Z,15.73
2022-12-18T16:22:48.927Z,16.55
2022-12-18T16:25:19.917Z,16.35
2022-12-18T16:27:46.404Z,16.73
2022-12-18T16:30:20.064Z,16.42
2022-12-18T16:32:47.029Z,15.02
2022-12-18T16:35:15.340Z,16.90
2022-12-18T16:37:42.406Z,17.50
2022-12-18T16:40:11.192Z,17.38
2022-12-18T16:42:39.573Z,15.50
2022-12-18T16:45:08.089Z,17.25
2022-12-18T16:47:34.781Z,16.02
2022-12-18T16:50:01.374Z,16.70
2022-12-18T16:52:30.276Z,17.42
2022-12-18T16:54:57.102Z,17.40
2022-12-18T16:57:25.401Z,17.48
2022-12-18T16:59:52.610Z,17.73
2022-12-18T17:02:25.094Z,17.92
2022-12-18T17:04:54.957Z,18.08
2022-12-18T17:07:21.537Z,16.42
2022-12-18T17:09:48.887Z,17.85
2022-12-18T17:12:15.450Z,19.33
2022-12-18T17:14:41.991Z,17.08
2022-12-18T17:17:24.279Z,17.65
2022-12-18T17:19:51.887Z,18.25
2022-12-18T17:22:18.753Z,16.77
2022-12-18T17:24:46.668Z,17.38
2022-12-18T17:27:13.187Z,19.70
2022-12-18T17:29:45.355Z,17.48
2022-12-18T17:32:14.308Z,17.85
2022-12-18T17:34:40.959Z,19.55
2022-12-18T17:37:07.983Z,18.30
2022-12-18T17:39:34.548Z,19.20
2022-12-18T17:42:01.308Z,18.58
2022-12-18T17:44:27.894Z,19.42
2022-12-18T17:46:54.485Z,17.92
2022-12-18T17:49:21.582Z,18.73
2022-12-18T17:51:48.483Z,18.73
2022-12-18T17:54:14.984Z,19.45
2022-12-18T17:56:41.627Z,19.38
2022-12-18T17:59:08.273Z,19.38
2022-12-18T18:01:38.561Z,20.00
2022-12-18T18:04:07.766Z,19.90
2022-12-18T18:06:34.877Z,18.63
2022-12-18T18:09:05.343Z,20.45
2022-12-18T18:11:52.006Z,19.35
2022-12-18T18:14:21.371Z,19.38
2022-12-18T18:16:49.799Z,20.30
2022-12-18T18:19:20.390Z,20.98
2022-12-18T18:21:48.871Z,19.20
2022-12-18T18:24:17.944Z,19.67
2022-12-18T18:26:46.457Z,20.20
2022-12-18T18:29:17.901Z,20.58
2022-12-18T18:31:45.000Z,19.25
2022-12-18T18:34:16.512Z,21.17
2022-12-18T18:36:43.287Z,22.13
2022-12-18T18:39:10.498Z,21.02
2022-12-18T18:41:37.042Z,20.33
2022-12-18T18:44:03.996Z,19.92
2022-12-18T18:46:30.583Z,19.23
2022-12-18T18:48:57.077Z,20.10
2022-12-18T18:51:23.932Z,18.58
2022-12-18T18:53:52.257Z,22.25
2022-12-18T18:59:08.387Z,19.52
2022-12-18T19:01:34.993Z,20.50
2022-12-18T19:04:01.741Z,21.35
2022-12-18T19:06:29.396Z,22.02
2022-12-18T19:08:56.982Z,22.70
2022-12-18T19:11:43.077Z,21.38
2022-12-18T19:14:11.356Z,21.23
2022-12-18T19:16:38.151Z,20.90
2022-12-18T19:19:04.801Z,24.58
2022-12-18T19:21:33.241Z,22.00
2022-12-18T19:24:01.154Z,23.05
2022-12-18T19:26:28.686Z,24.00
2022-12-18T19:29:01.285Z,24.38
2022-12-18T19:31:33.339Z,23.67
2022-12-18T19:34:02.224Z,22.80
2022-12-18T19:36:30.177Z,23.30
2022-12-18T19:38:58.909Z,23.35
2022-12-18T19:41:28.237Z,25.60
2022-12-18T19:43:57.698Z,25.67
2022-12-18T19:46:24.303Z,23.55
2022-12-18T19:48:51.117Z,24.55
2022-12-18T19:51:25.263Z,24.20
2022-12-18T19:53:58.222Z,22.38
2022-12-18T19:56:27.466Z,24.52
2022-12-18T19:58:54.874Z,27.35
2022-12-18T20:01:23.038Z,25.45
2022-12-18T20:03:51.734Z,26.33
2022-12-18T20:06:29.235Z,23.70
2022-12-18T20:09:00.162Z,24.92
2022-12-18T20:11:27.295Z,25.10
2022-12-18T20:13:54.011Z,25.30
2022-12-18T20:16:20.718Z,25.60
2022-12-18T20:18:47.678Z,26.20
2022-12-18T20:21:14.939Z,24.25
2022-12-18T20:23:41.785Z,26.33
2022-12-18T20:26:08.963Z,28.05
2022-12-18T20:28:35.576Z,27.50
2022-12-18T20:31:03.859Z,26.00
2022-12-18T20:33:30.966Z,28.10
2022-12-18T20:36:06.248Z,27.08
2022-12-18T20:38:34.347Z,28.13
2022-12-18T20:41:02.715Z,28.63
2022-12-18T20:43:30.053Z,29.35
2022-12-18T20:46:07.943Z,27.38
2022-12-18T20:48:35.276Z,27.48
2022-12-18T20:51:06.649Z,30.55
2022-12-18T20:53:34.075Z,30.40
2022-12-18T20:56:02.119Z,28.90
2022-12-18T20:58:28.767Z,30.90
2022-12-18T21:01:10.403Z,29.60
2022-12-18T21:03:38.566Z,29.38
2022-12-18T21:06:05.404Z,29.77
2022-12-18T21:08:32.148Z,30.58
2022-12-18T21:11:48.609Z,30.67
2022-12-18T21:14:23.118Z,29.60
2022-12-18T21:16:54.184Z,28.17
2022-12-18T21:19:27.196Z,30.77
2022-12-18T21:21:55.057Z,32.63
2022-12-18T21:24:21.995Z,29.63
2022-12-18T21:26:49.330Z,31.08
2022-12-18T21:29:23.859Z,31.88
2022-12-18T21:31:51.937Z,30.05
2022-12-18T21:34:28.885Z,31.17
2022-12-18T21:36:57.471Z,33.10
2022-12-18T21:39:25.695Z,29.75
2022-12-18T21:42:11.610Z,32.97
2022-12-18T21:44:41.563Z,31.75
2022-12-18T21:47:21.329Z,31.80
2022-12-18T21:49:50.656Z,32.72
2022-12-18T21:52:17.498Z,29.52
2022-12-18T21:54:44.126Z,31.98
2022-12-18T21:57:13.310Z,30.73
2022-12-18T21:59:41.850Z,32.00
2022-12-18T22:02:12.197Z,31.50
2022-12-18T22:04:38.923Z,32.60
2022-12-18T22:07:06.227Z,34.55
2022-12-18T22:09:33.079Z,30.45
2022-12-18T22:12:00.178Z,32.05
2022-12-18T22:14:27.084Z,29.45
2022-12-18T22:16:55.855Z,30.70
2022-12-18T22:19:22.521Z,30.35
2022-12-18T22:21:49.397Z,29.67
2022-12-18T22:24:27.069Z,30.17
2022-12-18T22:26:56.213Z,29.23
2022-12-18T22:29:47.167Z,29.05
2022-12-18T22:32:16.912Z,29.30
2022-12-18T22:37:15.438Z,28.48
2022-12-18T22:39:42.317Z,29.98
2022-12-18T22:42:09.463Z,30.08
2022-12-18T22:44:35.965Z,30.88
2022-12-18T22:47:06.320Z,30.25
2022-12-18T22:49:34.885Z,28.70
2022-12-18T22:52:02.239Z,30.67
2022-12-18T22:54:28.751Z,29.92
2022-12-18T22:56:55.520Z,32.28
2022-12-18T22:59:23.325Z,29.20
2022-12-18T23:01:58.674Z,31.52
2022-12-18T23:04:28.984Z,29.25
2022-12-18T23:07:00.085Z,30.42
2022-12-18T23:09:26.597Z,31.00
2022-12-18T23:11:53.090Z,30.52
2022-12-18T23:14:19.843Z,32.10
2022-12-18T23:16:46.347Z,30.13
2022-12-18T23:19:14.547Z,31.73
2022-12-18T23:21:41.249Z,30.30
2022-12-18T23:24:08.077Z,30.92
2022-12-18T23:26:34.615Z,31.40
2022-12-18T23:29:01.682Z,29.58
2022-12-18T23:31:31.028Z,32.97
2022-12-18T23:33:59.124Z,29.10
2022-12-18T23:36:26.141Z,30.98
2022-12-18T23:38:57.899Z,30.08
2022-12-18T23:41:26.200Z,29.75
2022-12-18T23:43:53.701Z,29.40
2022-12-18T23:46:29.475Z,33.97
2022-12-18T23:49:01.012Z,34.65
2022-12-18T23:51:29.034Z,33.03
2022-12-18T23:53:57.271Z,30.85
2022-12-18T23:56:24.416Z,32.25
2022-12-18T23:58:52.113Z,34.33
